Terminal Aerodrome Forecast
Issued by NWS

Home | Current Version | Previous Version | Text Only | Print | Product List | Glossary On
Versions: 1 2 3 4 5 6 7 8 9 10 11 12 13 14 15 16 17 18 19 20 21
000
FTUS45 KGJT 221740
TAFEGE
TAF
KEGE 221740Z 2218/2318 00000KT P6SM SCT035
     FM222200 30005KT P6SM VCSH OVC050
     FM230200 18004KT P6SM VCSH OVC035
     FM230800 15005KT 3SM -SHSN BR OVC020
     FM231100 11005KT 3SM -SHSN BR OVC015
     FM231400 25006KT 5SM -SHSN BR OVC015=

USA.gov is the U.S. government's official web portal to all federal, state and local government web resources and services.